sensor_id;sensor_type;location;lat;lon;timestamp;temperature;humidity
51619;DHT22;38518;53.164;5.430;2023-08-20T06:42:00;21.00;13.30
51619;DHT22;38518;53.164;5.430;2023-08-20T06:44:26;21.00;19.40
51619;DHT22;38518;53.164;5.430;2023-08-20T06:46:52;21.00;18.80
51619;DHT22;38518;53.164;5.430;2023-08-20T06:49:17;21.10;16.80
51619;DHT22;38518;53.164;5.430;2023-08-20T06:51:43;21.10;12.70
51619;DHT22;38518;53.164;5.430;2023-08-20T06:54:09;21.20;13.10
51619;DHT22;38518;53.164;5.430;2023-08-20T06:56:38;21.30;10.40
51619;DHT22;38518;53.164;5.430;2023-08-20T06:59:03;21.30;11.20
51619;DHT22;38518;53.164;5.430;2023-08-20T07:01:29;21.50;11.90
51619;DHT22;38518;53.164;5.430;2023-08-20T07:03:55;21.50;4.80
51619;DHT22;38518;53.164;5.430;2023-08-20T07:06:21;21.60;3.10
51619;DHT22;38518;53.164;5.430;2023-08-20T07:08:46;21.60;1.10
51619;DHT22;38518;53.164;5.430;2023-08-20T07:11:12;21.70;1.00
51619;DHT22;38518;53.164;5.430;2023-08-20T07:13:38;21.80;1.00
51619;DHT22;38518;53.164;5.430;2023-08-20T07:16:04;21.90;1.00
51619;DHT22;38518;53.164;5.430;2023-08-20T07:18:30;21.90;1.00
51619;DHT22;38518;53.164;5.430;2023-08-20T07:20:56;22.00;1.00
51619;DHT22;38518;53.164;5.430;2023-08-20T07:23:22;22.00;1.00
51619;DHT22;38518;53.164;5.430;2023-08-20T07:25:47;22.10;1.00
51619;DHT22;38518;53.164;5.430;2023-08-20T07:28:14;22.30;1.00
51619;DHT22;38518;53.164;5.430;2023-08-20T07:30:40;22.20;1.00
51619;DHT22;38518;53.164;5.430;2023-08-20T07:33:09;22.20;1.00
51619;DHT22;38518;53.164;5.430;2023-08-20T07:35:34;22.20;1.00
51619;DHT22;38518;53.164;5.430;2023-08-20T07:38:01;22.20;1.00
51619;DHT22;38518;53.164;5.430;2023-08-20T07:40:27;22.00;1.00
51619;DHT22;38518;53.164;5.430;2023-08-20T07:42:52;22.10;1.00
51619;DHT22;38518;53.164;5.430;2023-08-20T07:45:18;22.30;1.00
51619;DHT22;38518;53.164;5.430;2023-08-20T07:47:44;22.40;1.00
51619;DHT22;38518;53.164;5.430;2023-08-20T07:50:12;22.50;1.00
51619;DHT22;38518;53.164;5.430;2023-08-20T07:52:44;22.40;1.00
51619;DHT22;38518;53.164;5.430;2023-08-20T07:55:10;22.50;1.00
51619;DHT22;38518;53.164;5.430;2023-08-20T07:57:49;22.50;1.00
51619;DHT22;38518;53.164;5.430;2023-08-20T08:00:19;22.60;1.00
51619;DHT22;38518;53.164;5.430;2023-08-20T08:02:45;22.80;1.00
51619;DHT22;38518;53.164;5.430;2023-08-20T08:05:11;22.90;1.00
51619;DHT22;38518;53.164;5.430;2023-08-20T08:07:39;23.10;1.00
51619;DHT22;38518;53.164;5.430;2023-08-20T08:10:05;23.20;1.00
51619;DHT22;38518;53.164;5.430;2023-08-20T08:12:31;23.30;1.00
51619;DHT22;38518;53.164;5.430;2023-08-20T08:14:57;23.40;1.00
51619;DHT22;38518;53.164;5.430;2023-08-20T08:17:23;23.50;1.00
51619;DHT22;38518;53.164;5.430;2023-08-20T08:19:51;24.00;1.00
51619;DHT22;38518;53.164;5.430;2023-08-20T08:22:39;23.40;1.00
51619;DHT22;38518;53.164;5.430;2023-08-20T08:25:08;23.70;1.00
51619;DHT22;38518;53.164;5.430;2023-08-20T08:27:34;23.70;1.00
51619;DHT22;38518;53.164;5.430;2023-08-20T08:30:02;24.00;1.00
51619;DHT22;38518;53.164;5.430;2023-08-20T08:32:29;24.20;1.00
51619;DHT22;38518;53.164;5.430;2023-08-20T08:34:55;24.30;1.00
51619;DHT22;38518;53.164;5.430;2023-08-20T08:40:16;24.50;1.00
51619;DHT22;38518;53.164;5.430;2023-08-20T08:42:42;24.80;1.00
51619;DHT22;38518;53.164;5.430;2023-08-20T08:45:09;24.70;1.00
51619;DHT22;38518;53.164;5.430;2023-08-20T08:47:39;24.80;1.00
51619;DHT22;38518;53.164;5.430;2023-08-20T08:50:18;25.00;1.00
51619;DHT22;38518;53.164;5.430;2023-08-20T08:52:47;25.30;1.00
51619;DHT22;38518;53.164;5.430;2023-08-20T08:55:16;25.20;1.00
51619;DHT22;38518;53.164;5.430;2023-08-20T08:57:42;25.20;1.00
51619;DHT22;38518;53.164;5.430;2023-08-20T09:00:08;25.10;1.00
51619;DHT22;38518;53.164;5.430;2023-08-20T09:02:34;25.40;1.00
51619;DHT22;38518;53.164;5.430;2023-08-20T09:05:00;25.70;1.00
51619;DHT22;38518;53.164;5.430;2023-08-20T09:07:26;25.80;1.00
51619;DHT22;38518;53.164;5.430;2023-08-20T09:09:59;25.80;1.00
51619;DHT22;38518;53.164;5.430;2023-08-20T09:12:26;25.60;1.00
51619;DHT22;38518;53.164;5.430;2023-08-20T09:14:52;25.70;1.00
51619;DHT22;38518;53.164;5.430;2023-08-20T09:17:20;25.80;1.00
51619;DHT22;38518;53.164;5.430;2023-08-20T09:19:46;25.50;1.00
51619;DHT22;38518;53.164;5.430;2023-08-20T09:22:21;25.40;1.00
51619;DHT22;38518;53.164;5.430;2023-08-20T09:24:57;25.60;1.00
51619;DHT22;38518;53.164;5.430;2023-08-20T09:27:23;25.90;1.00
51619;DHT22;38518;53.164;5.430;2023-08-20T09:29:54;26.00;1.00
51619;DHT22;38518;53.164;5.430;2023-08-20T09:32:24;26.10;1.00
51619;DHT22;38518;53.164;5.430;2023-08-20T09:34:51;26.10;1.00
51619;DHT22;38518;53.164;5.430;2023-08-20T09:37:19;26.30;1.00
51619;DHT22;38518;53.164;5.430;2023-08-20T09:39:45;26.20;1.00
51619;DHT22;38518;53.164;5.430;2023-08-20T09:45:55;26.60;1.00
51619;DHT22;38518;53.164;5.430;2023-08-20T09:48:24;26.90;1.00
51619;DHT22;38518;53.164;5.430;2023-08-20T09:50:57;26.50;1.00
51619;DHT22;38518;53.164;5.430;2023-08-20T09:53:34;26.70;1.00
51619;DHT22;38518;53.164;5.430;2023-08-20T09:56:15;26.90;1.00
51619;DHT22;38518;53.164;5.430;2023-08-20T09:58:41;26.70;1.00
51619;DHT22;38518;53.164;5.430;2023-08-20T10:01:08;26.90;1.00
51619;DHT22;38518;53.164;5.430;2023-08-20T10:03:34;27.30;1.00
51619;DHT22;38518;53.164;5.430;2023-08-20T10:06:01;27.80;1.00
51619;DHT22;38518;53.164;5.430;2023-08-20T10:08:27;27.80;1.00
51619;DHT22;38518;53.164;5.430;2023-08-20T10:10:53;27.70;1.00
51619;DHT22;38518;53.164;5.430;2023-08-20T10:13:19;27.80;1.00
51619;DHT22;38518;53.164;5.430;2023-08-20T10:15:45;28.10;1.00
51619;DHT22;38518;53.164;5.430;2023-08-20T10:18:14;28.20;1.00
51619;DHT22;38518;53.164;5.430;2023-08-20T10:20:43;28.50;1.00
51619;DHT22;38518;53.164;5.430;2023-08-20T10:23:12;28.50;1.00
51619;DHT22;38518;53.164;5.430;2023-08-20T10:25:41;28.70;1.00
51619;DHT22;38518;53.164;5.430;2023-08-20T10:28:19;28.70;1.00
51619;DHT22;38518;53.164;5.430;2023-08-20T10:33:35;28.90;1.00
51619;DHT22;38518;53.164;5.430;2023-08-20T10:36:10;28.60;1.00
51619;DHT22;38518;53.164;5.430;2023-08-20T10:38:37;28.70;1.00
51619;DHT22;38518;53.164;5.430;2023-08-20T10:41:06;28.50;1.00
51619;DHT22;38518;53.164;5.430;2023-08-20T10:43:40;29.50;1.00
51619;DHT22;38518;53.164;5.430;2023-08-20T10:46:22;28.60;1.00
51619;DHT22;38518;53.164;5.430;2023-08-20T10:48:55;29.00;1.00
51619;DHT22;38518;53.164;5.430;2023-08-20T10:56:58;28.90;1.00
51619;DHT22;38518;53.164;5.430;2023-08-20T10:59:28;29.20;1.00
51619;DHT22;38518;53.164;5.430;2023-08-20T11:01:58;29.10;1.00
51619;DHT22;38518;53.164;5.430;2023-08-20T11:04:29;29.40;1.00
51619;DHT22;38518;53.164;5.430;2023-08-20T11:06:58;29.40;1.00
51619;DHT22;38518;53.164;5.430;2023-08-20T11:09:29;29.40;1.00
51619;DHT22;38518;53.164;5.430;2023-08-20T11:11:55;29.40;1.00
51619;DHT22;38518;53.164;5.430;2023-08-20T11:14:22;29.40;1.00
51619;DHT22;38518;53.164;5.430;2023-08-20T11:16:48;29.50;1.00
51619;DHT22;38518;53.164;5.430;2023-08-20T11:19:19;29.60;1.00
51619;DHT22;38518;53.164;5.430;2023-08-20T11:21:46;29.70;1.00
51619;DHT22;38518;53.164;5.430;2023-08-20T11:24:12;30.00;1.00
51619;DHT22;38518;53.164;5.430;2023-08-20T11:26:42;30.20;1.00
51619;DHT22;38518;53.164;5.430;2023-08-20T11:29:09;29.80;1.00
51619;DHT22;38518;53.164;5.430;2023-08-20T11:31:54;30.00;1.00
51619;DHT22;38518;53.164;5.430;2023-08-20T11:34:21;30.00;1.00
51619;DHT22;38518;53.164;5.430;2023-08-20T11:36:47;30.40;1.00
51619;DHT22;38518;53.164;5.430;2023-08-20T11:39:13;30.10;1.00
51619;DHT22;38518;53.164;5.430;2023-08-20T11:41:39;30.20;1.00
51619;DHT22;38518;53.164;5.430;2023-08-20T11:44:18;30.20;1.00
51619;DHT22;38518;53.164;5.430;2023-08-20T11:46:44;30.10;1.00
51619;DHT22;38518;53.164;5.430;2023-08-20T11:49:11;29.90;1.00
51619;DHT22;38518;53.164;5.430;2023-08-20T11:51:38;30.30;1.00
51619;DHT22;38518;53.164;5.430;2023-08-20T11:54:12;30.30;1.00
51619;DHT22;38518;53.164;5.430;2023-08-20T11:56:52;30.30;1.00
51619;DHT22;38518;53.164;5.430;2023-08-20T11:59:22;30.60;1.00
51619;DHT22;38518;53.164;5.430;2023-08-20T12:02:02;30.70;1.00
51619;DHT22;38518;53.164;5.430;2023-08-20T12:04:37;30.90;1.00
51619;DHT22;38518;53.164;5.430;2023-08-20T12:07:08;30.60;1.00
51619;DHT22;38518;53.164;5.430;2023-08-20T12:09:34;30.70;1.00
51619;DHT22;38518;53.164;5.430;2023-08-20T12:12:09;30.70;1.00
51619;DHT22;38518;53.164;5.430;2023-08-20T12:14:35;30.70;1.00
51619;DHT22;38518;53.164;5.430;2023-08-20T12:17:01;30.60;1.00
51619;DHT22;38518;53.164;5.430;2023-08-20T12:19:29;30.50;1.00
51619;DHT22;38518;53.164;5.430;2023-08-20T12:21:54;31.00;1.00
51619;DHT22;38518;53.164;5.430;2023-08-20T12:24:20;31.30;1.00
51619;DHT22;38518;53.164;5.430;2023-08-20T12:26:46;31.20;1.00
51619;DHT22;38518;53.164;5.430;2023-08-20T12:29:12;31.30;1.00
51619;DHT22;38518;53.164;5.430;2023-08-20T12:31:40;31.30;1.00
51619;DHT22;38518;53.164;5.430;2023-08-20T12:34:06;31.20;1.00
51619;DHT22;38518;53.164;5.430;2023-08-20T12:36:37;31.20;1.00
51619;DHT22;38518;53.164;5.430;2023-08-20T12:39:04;31.10;1.00
51619;DHT22;38518;53.164;5.430;2023-08-20T12:41:30;31.20;1.00
51619;DHT22;38518;53.164;5.430;2023-08-20T12:43:57;31.10;1.00
51619;DHT22;38518;53.164;5.430;2023-08-20T12:46:22;31.00;1.00
51619;DHT22;38518;53.164;5.430;2023-08-20T12:48:48;31.00;1.00
51619;DHT22;38518;53.164;5.430;2023-08-20T12:51:14;30.90;1.00
51619;DHT22;38518;53.164;5.430;2023-08-20T12:53:43;30.70;1.00
51619;DHT22;38518;53.164;5.430;2023-08-20T12:56:09;30.80;1.00
51619;DHT22;38518;53.164;5.430;2023-08-20T12:58:38;30.70;1.00
51619;DHT22;38518;53.164;5.430;2023-08-20T13:01:03;30.70;1.00
51619;DHT22;38518;53.164;5.430;2023-08-20T13:03:29;30.40;1.00
51619;DHT22;38518;53.164;5.430;2023-08-20T13:05:56;30.50;1.00
51619;DHT22;38518;53.164;5.430;2023-08-20T13:08:27;30.40;1.00
51619;DHT22;38518;53.164;5.430;2023-08-20T13:10:56;30.30;1.00
51619;DHT22;38518;53.164;5.430;2023-08-20T13:13:23;30.40;1.00
51619;DHT22;38518;53.164;5.430;2023-08-20T13:15:50;30.40;1.00
51619;DHT22;38518;53.164;5.430;2023-08-20T13:18:17;30.70;1.00
51619;DHT22;38518;53.164;5.430;2023-08-20T13:20:43;30.70;1.00
51619;DHT22;38518;53.164;5.430;2023-08-20T13:23:09;30.50;1.00
51619;DHT22;38518;53.164;5.430;2023-08-20T13:25:38;30.70;1.00
51619;DHT22;38518;53.164;5.430;2023-08-20T13:28:04;30.60;1.00
51619;DHT22;38518;53.164;5.430;2023-08-20T13:30:30;30.80;1.00
51619;DHT22;38518;53.164;5.430;2023-08-20T13:32:58;30.90;1.00
51619;DHT22;38518;53.164;5.430;2023-08-20T13:35:24;31.00;1.00
51619;DHT22;38518;53.164;5.430;2023-08-20T13:37:53;31.30;1.00
51619;DHT22;38518;53.164;5.430;2023-08-20T13:40:19;31.20;1.00
51619;DHT22;38518;53.164;5.430;2023-08-20T13:42:44;31.10;1.00
51619;DHT22;38518;53.164;5.430;2023-08-20T13:45:10;31.00;1.00
51619;DHT22;38518;53.164;5.430;2023-08-20T13:47:36;30.90;1.00
51619;DHT22;38518;53.164;5.430;2023-08-20T13:50:02;31.10;1.00
51619;DHT22;38518;53.164;5.430;2023-08-20T13:52:30;31.00;1.00
51619;DHT22;38518;53.164;5.430;2023-08-20T13:54:58;31.00;1.00
51619;DHT22;38518;53.164;5.430;2023-08-20T13:57:24;31.20;1.00
51619;DHT22;38518;53.164;5.430;2023-08-20T13:59:50;31.30;1.00
51619;DHT22;38518;53.164;5.430;2023-08-20T14:02:16;31.50;1.00
51619;DHT22;38518;53.164;5.430;2023-08-20T14:04:42;31.30;1.00
51619;DHT22;38518;53.164;5.430;2023-08-20T14:07:11;31.50;1.00
51619;DHT22;38518;53.164;5.430;2023-08-20T14:09:39;31.50;1.00
51619;DHT22;38518;53.164;5.430;2023-08-20T14:12:06;31.30;1.00
51619;DHT22;38518;53.164;5.430;2023-08-20T14:14:32;31.10;1.00
51619;DHT22;38518;53.164;5.430;2023-08-20T14:16:58;31.00;1.00
51619;DHT22;38518;53.164;5.430;2023-08-20T14:19:23;31.00;1.00
51619;DHT22;38518;53.164;5.430;2023-08-20T14:21:49;31.40;1.00
51619;DHT22;38518;53.164;5.430;2023-08-20T14:24:16;31.50;1.00
51619;DHT22;38518;53.164;5.430;2023-08-20T14:26:42;31.50;1.00
51619;DHT22;38518;53.164;5.430;2023-08-20T14:29:08;31.00;1.00
51619;DHT22;38518;53.164;5.430;2023-08-20T14:31:34;31.00;1.00
51619;DHT22;38518;53.164;5.430;2023-08-20T14:33:59;31.30;1.00
51619;DHT22;38518;53.164;5.430;2023-08-20T14:36:25;31.30;1.00
51619;DHT22;38518;53.164;5.430;2023-08-20T14:38:51;31.30;1.00
51619;DHT22;38518;53.164;5.430;2023-08-20T14:41:17;31.30;1.00
51619;DHT22;38518;53.164;5.430;2023-08-20T14:43:43;31.50;1.00
51619;DHT22;38518;53.164;5.430;2023-08-20T14:46:08;31.90;1.00
51619;DHT22;38518;53.164;5.430;2023-08-20T14:48:34;31.90;1.00
51619;DHT22;38518;53.164;5.430;2023-08-20T14:51:00;31.90;1.00
51619;DHT22;38518;53.164;5.430;2023-08-20T14:53:29;32.20;1.00
51619;DHT22;38518;53.164;5.430;2023-08-20T14:55:58;32.00;1.00
51619;DHT22;38518;53.164;5.430;2023-08-20T14:58:23;31.60;1.00
51619;DHT22;38518;53.164;5.430;2023-08-20T15:00:49;31.50;1.00
51619;DHT22;38518;53.164;5.430;2023-08-20T15:03:15;30.60;1.00
51619;DHT22;38518;53.164;5.430;2023-08-20T15:05:42;31.30;1.00
51619;DHT22;38518;53.164;5.430;2023-08-20T15:08:07;31.10;1.00
51619;DHT22;38518;53.164;5.430;2023-08-20T15:10:33;31.30;1.00
51619;DHT22;38518;53.164;5.430;2023-08-20T15:12:59;31.40;1.00
51619;DHT22;38518;53.164;5.430;2023-08-20T15:15:25;31.50;1.00
51619;DHT22;38518;53.164;5.430;2023-08-20T15:17:54;31.70;1.00
51619;DHT22;38518;53.164;5.430;2023-08-20T15:20:20;31.20;1.00
51619;DHT22;38518;53.164;5.430;2023-08-20T15:22:46;31.50;1.00
51619;DHT22;38518;53.164;5.430;2023-08-20T15:25:11;31.40;1.00
51619;DHT22;38518;53.164;5.430;2023-08-20T15:27:38;31.20;1.00
51619;DHT22;38518;53.164;5.430;2023-08-20T15:30:06;30.80;1.00
51619;DHT22;38518;53.164;5.430;2023-08-20T15:32:34;31.40;1.00
51619;DHT22;38518;53.164;5.430;2023-08-20T15:35:00;31.00;1.00
51619;DHT22;38518;53.164;5.430;2023-08-20T15:37:31;30.80;1.00
51619;DHT22;38518;53.164;5.430;2023-08-20T15:39:57;31.10;1.00
51619;DHT22;38518;53.164;5.430;2023-08-20T15:42:22;31.30;1.00
51619;DHT22;38518;53.164;5.430;2023-08-20T15:44:48;31.30;1.00
51619;DHT22;38518;53.164;5.430;2023-08-20T15:47:14;31.00;1.00
51619;DHT22;38518;53.164;5.430;2023-08-20T15:49:40;31.40;1.00
51619;DHT22;38518;53.164;5.430;2023-08-20T15:52:06;31.10;1.00
51619;DHT22;38518;53.164;5.430;2023-08-20T15:54:31;31.10;1.00
51619;DHT22;38518;53.164;5.430;2023-08-20T15:56:57;31.00;1.00
51619;DHT22;38518;53.164;5.430;2023-08-20T15:59:23;29.60;1.00
51619;DHT22;38518;53.164;5.430;2023-08-20T16:01:49;28.90;1.00
51619;DHT22;38518;53.164;5.430;2023-08-20T16:04:14;27.80;1.00
51619;DHT22;38518;53.164;5.430;2023-08-20T16:06:40;27.10;1.00
51619;DHT22;38518;53.164;5.430;2023-08-20T16:09:06;26.50;1.00
51619;DHT22;38518;53.164;5.430;2023-08-20T16:11:34;26.20;1.00
51619;DHT22;38518;53.164;5.430;2023-08-20T16:14:00;25.90;1.00
51619;DHT22;38518;53.164;5.430;2023-08-20T16:16:26;25.50;1.00
51619;DHT22;38518;53.164;5.430;2023-08-20T16:18:51;25.40;1.00
51619;DHT22;38518;53.164;5.430;2023-08-20T16:21:17;25.30;1.00
51619;DHT22;38518;53.164;5.430;2023-08-20T16:23:43;25.00;1.00
51619;DHT22;38518;53.164;5.430;2023-08-20T16:26:09;24.90;1.00
51619;DHT22;38518;53.164;5.430;2023-08-20T16:28:35;24.70;1.00
51619;DHT22;38518;53.164;5.430;2023-08-20T16:31:01;24.70;1.00
51619;DHT22;38518;53.164;5.430;2023-08-20T16:33:27;24.50;1.00
51619;DHT22;38518;53.164;5.430;2023-08-20T16:35:53;24.40;1.00
51619;DHT22;38518;53.164;5.430;2023-08-20T16:38:19;24.30;1.00
51619;DHT22;38518;53.164;5.430;2023-08-20T16:40:46;24.10;1.00
51619;DHT22;38518;53.164;5.430;2023-08-20T16:43:11;24.10;1.00
51619;DHT22;38518;53.164;5.430;2023-08-20T16:45:37;23.90;1.00
51619;DHT22;38518;53.164;5.430;2023-08-20T16:48:03;23.80;1.00
51619;DHT22;38518;53.164;5.430;2023-08-20T16:50:29;23.70;1.00
51619;DHT22;38518;53.164;5.430;2023-08-20T16:52:56;23.70;1.00
51619;DHT22;38518;53.164;5.430;2023-08-20T16:55:23;23.60;1.00
51619;DHT22;38518;53.164;5.430;2023-08-20T16:57:49;23.50;1.00
51619;DHT22;38518;53.164;5.430;2023-08-20T17:00:15;23.40;1.00
51619;DHT22;38518;53.164;5.430;2023-08-20T17:02:41;23.40;1.00
51619;DHT22;38518;53.164;5.430;2023-08-20T17:05:07;23.30;1.00
51619;DHT22;38518;53.164;5.430;2023-08-20T17:07:34;23.30;1.00
51619;DHT22;38518;53.164;5.430;2023-08-20T17:10:00;23.40;1.00
51619;DHT22;38518;53.164;5.430;2023-08-20T17:12:25;23.30;1.00
51619;DHT22;38518;53.164;5.430;2023-08-20T17:14:51;23.30;1.00
51619;DHT22;38518;53.164;5.430;2023-08-20T17:17:18;23.20;1.00
51619;DHT22;38518;53.164;5.430;2023-08-20T17:19:44;23.00;1.00
51619;DHT22;38518;53.164;5.430;2023-08-20T17:22:10;22.90;1.00
51619;DHT22;38518;53.164;5.430;2023-08-20T17:24:39;22.80;1.00
51619;DHT22;38518;53.164;5.430;2023-08-20T17:27:05;22.70;1.00
51619;DHT22;38518;53.164;5.430;2023-08-20T17:29:33;22.70;1.00
51619;DHT22;38518;53.164;5.430;2023-08-20T17:31:59;22.50;1.00
51619;DHT22;38518;53.164;5.430;2023-08-20T17:34:24;22.60;1.00
51619;DHT22;38518;53.164;5.430;2023-08-20T17:36:50;22.50;1.00
51619;DHT22;38518;53.164;5.430;2023-08-20T17:39:18;22.40;1.00
51619;DHT22;38518;53.164;5.430;2023-08-20T17:41:45;22.40;1.00
51619;DHT22;38518;53.164;5.430;2023-08-20T17:44:11;22.30;1.00
51619;DHT22;38518;53.164;5.430;2023-08-20T17:46:46;22.30;1.00
51619;DHT22;38518;53.164;5.430;2023-08-20T17:49:12;22.20;1.00
51619;DHT22;38518;53.164;5.430;2023-08-20T17:51:38;22.20;1.00
51619;DHT22;38518;53.164;5.430;2023-08-20T17:54:04;22.20;1.00
51619;DHT22;38518;53.164;5.430;2023-08-20T17:56:31;22.10;1.00
51619;DHT22;38518;53.164;5.430;2023-08-20T17:58:57;22.10;1.00
51619;DHT22;38518;53.164;5.430;2023-08-20T18:01:22;22.00;1.00
51619;DHT22;38518;53.164;5.430;2023-08-20T18:03:48;21.90;1.00
51619;DHT22;38518;53.164;5.430;2023-08-20T18:06:16;21.80;1.00
51619;DHT22;38518;53.164;5.430;2023-08-20T18:08:42;21.70;1.00
51619;DHT22;38518;53.164;5.430;2023-08-20T18:11:08;21.60;1.00
51619;DHT22;38518;53.164;5.430;2023-08-20T18:13:35;21.60;1.00
51619;DHT22;38518;53.164;5.430;2023-08-20T18:16:01;21.30;1.00
51619;DHT22;38518;53.164;5.430;2023-08-20T18:18:28;21.40;1.00
51619;DHT22;38518;53.164;5.430;2023-08-20T18:20:55;21.40;1.00
51619;DHT22;38518;53.164;5.430;2023-08-20T18:23:21;21.30;1.00
51619;DHT22;38518;53.164;5.430;2023-08-20T18:25:51;21.30;1.00
51619;DHT22;38518;53.164;5.430;2023-08-20T18:28:16;21.20;1.00
51619;DHT22;38518;53.164;5.430;2023-08-20T18:30:50;21.10;1.00
51619;DHT22;38518;53.164;5.430;2023-08-20T18:33:17;21.00;1.00
51619;DHT22;38518;53.164;5.430;2023-08-20T18:35:43;20.90;1.00
51619;DHT22;38518;53.164;5.430;2023-08-20T18:38:36;20.90;1.00
51619;DHT22;38518;53.164;5.430;2023-08-20T18:41:04;20.80;1.00
51619;DHT22;38518;53.164;5.430;2023-08-20T18:43:32;20.70;1.00
51619;DHT22;38518;53.164;5.430;2023-08-20T18:45:58;20.70;1.00
51619;DHT22;38518;53.164;5.430;2023-08-20T18:48:25;20.60;1.00
51619;DHT22;38518;53.164;5.430;2023-08-20T18:50:50;20.60;1.00
51619;DHT22;38518;53.164;5.430;2023-08-20T18:53:16;20.60;1.00
51619;DHT22;38518;53.164;5.430;2023-08-20T18:55:42;20.50;1.00
51619;DHT22;38518;53.164;5.430;2023-08-20T18:58:08;20.40;1.00
51619;DHT22;38518;53.164;5.430;2023-08-20T19:00:34;20.90;1.00
51619;DHT22;38518;53.164;5.430;2023-08-20T19:02:59;20.40;1.00
51619;DHT22;38518;53.164;5.430;2023-08-20T19:05:25;20.40;1.00
51619;DHT22;38518;53.164;5.430;2023-08-20T19:07:52;20.30;1.00
51619;DHT22;38518;53.164;5.430;2023-08-20T19:10:21;20.20;1.00
51619;DHT22;38518;53.164;5.430;2023-08-20T19:12:47;20.20;1.00
51619;DHT22;38518;53.164;5.430;2023-08-20T19:15:13;20.10;1.00
51619;DHT22;38518;53.164;5.430;2023-08-20T19:17:39;20.10;1.00
51619;DHT22;38518;53.164;5.430;2023-08-20T19:20:05;20.10;1.00
51619;DHT22;38518;53.164;5.430;2023-08-20T19:22:35;20.00;1.00
51619;DHT22;38518;53.164;5.430;2023-08-20T19:25:04;20.00;1.00
51619;DHT22;38518;53.164;5.430;2023-08-20T19:27:30;19.90;1.00
51619;DHT22;38518;53.164;5.430;2023-08-20T19:29:59;19.60;1.00
51619;DHT22;38518;53.164;5.430;2023-08-20T19:32:25;19.80;1.00
51619;DHT22;38518;53.164;5.430;2023-08-20T19:34:52;19.80;1.00
51619;DHT22;38518;53.164;5.430;2023-08-20T19:37:18;19.70;1.00
51619;DHT22;38518;53.164;5.430;2023-08-20T19:39:43;19.70;1.00
51619;DHT22;38518;53.164;5.430;2023-08-20T19:42:09;19.60;1.00
51619;DHT22;38518;53.164;5.430;2023-08-20T19:44:36;19.70;1.00
51619;DHT22;38518;53.164;5.430;2023-08-20T19:47:02;19.60;1.00
51619;DHT22;38518;53.164;5.430;2023-08-20T19:49:28;19.60;1.00
51619;DHT22;38518;53.164;5.430;2023-08-20T19:51:53;19.60;1.00
51619;DHT22;38518;53.164;5.430;2023-08-20T19:54:19;19.50;1.00
51619;DHT22;38518;53.164;5.430;2023-08-20T19:56:50;19.40;1.00
51619;DHT22;38518;53.164;5.430;2023-08-20T19:59:16;19.40;1.00
51619;DHT22;38518;53.164;5.430;2023-08-20T20:01:50;19.40;1.00
51619;DHT22;38518;53.164;5.430;2023-08-20T20:04:16;19.40;1.00
51619;DHT22;38518;53.164;5.430;2023-08-20T20:06:42;19.30;1.00
51619;DHT22;38518;53.164;5.430;2023-08-20T20:09:08;19.30;1.00
51619;DHT22;38518;53.164;5.430;2023-08-20T20:11:38;19.00;1.00
51619;DHT22;38518;53.164;5.430;2023-08-20T20:14:04;19.20;1.00
51619;DHT22;38518;53.164;5.430;2023-08-20T20:16:30;19.20;1.00
51619;DHT22;38518;53.164;5.430;2023-08-20T20:18:56;19.20;1.00
51619;DHT22;38518;53.164;5.430;2023-08-20T20:21:22;18.80;1.00
51619;DHT22;38518;53.164;5.430;2023-08-20T20:23:49;19.10;1.00
51619;DHT22;38518;53.164;5.430;2023-08-20T20:26:15;19.10;1.00
51619;DHT22;38518;53.164;5.430;2023-08-20T20:28:40;19.10;1.00
51619;DHT22;38518;53.164;5.430;2023-08-20T20:31:06;19.10;1.00
51619;DHT22;38518;53.164;5.430;2023-08-20T20:33:32;19.10;1.00
51619;DHT22;38518;53.164;5.430;2023-08-20T20:35:58;19.00;1.00
51619;DHT22;38518;53.164;5.430;2023-08-20T20:38:24;19.00;1.00
51619;DHT22;38518;53.164;5.430;2023-08-20T20:40:51;19.00;1.00
51619;DHT22;38518;53.164;5.430;2023-08-20T20:43:17;19.00;1.00
51619;DHT22;38518;53.164;5.430;2023-08-20T20:45:47;19.00;1.00
51619;DHT22;38518;53.164;5.430;2023-08-20T20:48:13;18.90;1.00
51619;DHT22;38518;53.164;5.430;2023-08-20T20:50:39;18.90;1.00
51619;DHT22;38518;53.164;5.430;2023-08-20T20:53:06;18.90;1.00
51619;DHT22;38518;53.164;5.430;2023-08-20T20:55:32;18.80;1.00
51619;DHT22;38518;53.164;5.430;2023-08-20T20:57:57;18.80;1.00
51619;DHT22;38518;53.164;5.430;2023-08-20T21:00:26;18.70;1.00
51619;DHT22;38518;53.164;5.430;2023-08-20T21:02:52;18.70;1.00
51619;DHT22;38518;53.164;5.430;2023-08-20T21:05:17;18.60;1.00
51619;DHT22;38518;53.164;5.430;2023-08-20T21:07:44;18.60;1.00
51619;DHT22;38518;53.164;5.430;2023-08-20T21:10:11;18.60;4.20
51619;DHT22;38518;53.164;5.430;2023-08-20T21:12:40;18.50;6.90
51619;DHT22;38518;53.164;5.430;2023-08-20T21:15:06;18.50;6.60
51619;DHT22;38518;53.164;5.430;2023-08-20T21:17:32;18.50;6.30
51619;DHT22;38518;53.164;5.430;2023-08-20T21:19:59;18.50;8.80
51619;DHT22;38518;53.164;5.430;2023-08-20T21:22:27;18.40;9.30
51619;DHT22;38518;53.164;5.430;2023-08-20T21:24:53;18.30;9.40
51619;DHT22;38518;53.164;5.430;2023-08-20T21:27:19;18.30;7.30
51619;DHT22;38518;53.164;5.430;2023-08-20T21:29:44;18.20;7.20
51619;DHT22;38518;53.164;5.430;2023-08-20T21:32:10;18.20;8.40
51619;DHT22;38518;53.164;5.430;2023-08-20T21:34:38;18.10;8.20
51619;DHT22;38518;53.164;5.430;2023-08-20T21:37:04;18.10;10.00
51619;DHT22;38518;53.164;5.430;2023-08-20T21:39:30;18.00;10.30
51619;DHT22;38518;53.164;5.430;2023-08-20T21:41:56;18.00;11.10
51619;DHT22;38518;53.164;5.430;2023-08-20T21:44:22;17.90;13.20
51619;DHT22;38518;53.164;5.430;2023-08-20T21:46:52;17.90;18.10
51619;DHT22;38518;53.164;5.430;2023-08-20T21:49:19;17.80;16.90
51619;DHT22;38518;53.164;5.430;2023-08-20T21:51:49;17.80;21.30
51619;DHT22;38518;53.164;5.430;2023-08-20T21:54:16;17.70;19.60
51619;DHT22;38518;53.164;5.430;2023-08-20T21:56:42;17.70;19.60
51619;DHT22;38518;53.164;5.430;2023-08-20T21:59:07;17.70;21.80
51619;DHT22;38518;53.164;5.430;2023-08-20T22:01:33;17.60;22.20
51619;DHT22;38518;53.164;5.430;2023-08-20T22:03:59;17.60;21.20
51619;DHT22;38518;53.164;5.430;2023-08-20T22:06:25;17.50;22.90
51619;DHT22;38518;53.164;5.430;2023-08-20T22:08:51;17.50;27.40
51619;DHT22;38518;53.164;5.430;2023-08-20T22:11:16;17.40;25.20
51619;DHT22;38518;53.164;5.430;2023-08-20T22:13:42;17.40;26.20
51619;DHT22;38518;53.164;5.430;2023-08-20T22:16:08;17.30;27.50
51619;DHT22;38518;53.164;5.430;2023-08-20T22:18:34;17.30;27.70
51619;DHT22;38518;53.164;5.430;2023-08-20T22:20:59;17.30;28.60
51619;DHT22;38518;53.164;5.430;2023-08-20T22:23:25;17.30;29.00
51619;DHT22;38518;53.164;5.430;2023-08-20T22:25:51;17.20;28.70
51619;DHT22;38518;53.164;5.430;2023-08-20T22:28:17;17.20;29.20
51619;DHT22;38518;53.164;5.430;2023-08-20T22:30:42;17.10;31.70
51619;DHT22;38518;53.164;5.430;2023-08-20T22:33:08;17.10;34.40
51619;DHT22;38518;53.164;5.430;2023-08-20T22:35:34;17.00;35.90
51619;DHT22;38518;53.164;5.430;2023-08-20T22:38:07;17.00;38.60
51619;DHT22;38518;53.164;5.430;2023-08-20T22:40:34;17.00;41.40